Nordic Philip — 5BZH2 — position and weather

sailwx.info

Track history (hours):
 
Tides and Currents Weather Stations Pressure Air Temp Water Temp Dewpoint Dewpoint Depression Visibility Wind Speed Wind Dir Waves Ship Positions

Nordic Philip

Last reported at 2015-Jul-04 02:17 UTC. Time now 2015-Jul-04 20:47 UTC.
Position N 60°00' E 029°43'.

Length 151 m; draft 7.2 m.

Type: Cargo ship. MMSI: 212018000.

Date/timePositionNaut miles runAvg speedWind from/ knotsBaromVisibWave heightAir tempDewpointWater temp
2015-Jul-04 02:17N 60°00' E 029°43'0 0.0
2015-Jul-04 01:29N 60°00' E 029°43'1 1.1
2015-Jul-04 00:33N 59°59' E 029°43'7614.7
2015-Jul-03 19:24N 60°00' E 027°11'1315.1
2015-Jul-03 18:33N 59°59' E 026°46'1615.7
2015-Jul-03 17:33N 59°56' E 026°15'1615.9
2015-Jul-03 16:33N 59°52' E 025°44'2015.8
2015-Jul-03 15:18N 59°48' E 025°06'1216.4
2015-Jul-03 14:33N 59°45' E 024°42'1716.7
2015-Jul-03 13:33N 59°41' E 024°10'1716.8
2015-Jul-03 12:33N 59°35' E 023°39'1716.8
2015-Jul-03 11:33N 59°30' E 023°08'1716.7
2015-Jul-03 10:33N 59°24' E 022°37'1916.8
2015-Jul-03 09:27N 59°13' E 022°08'1516.7
2015-Jul-03 08:33N 59°04' E 021°45'2016.8
2015-Jul-03 07:21N 58°48' E 021°20'8816.7
2015-Jul-03 02:07N 57°38' E 019°39'1716.5
2015-Jul-03 01:04N 57°25' E 019°20'916.4
2015-Jul-03 00:32N 57°18' E 019°10'1616.3
2015-Jul-02 23:33N 57°05' E 018°52'1716.5
2015-Jul-02 22:33N 56°52' E 018°34'4116.5
2015-Jul-02 20:04N 56°26' E 017°36'816.6
2015-Jul-02 19:33N 56°21' E 017°24'1515.3
2015-Jul-02 18:33N 56°11' E 017°03'1916.3
2015-Jul-02 17:25N 55°60' E 016°36'1416.2
2015-Jul-02 16:33N 55°53' E 016°15'1616.2
2015-Jul-02 15:33N 55°45' E 015°49'1616.3
2015-Jul-02 14:33N 55°38' E 015°24'1616.2
2015-Jul-02 13:34N 55°30' E 014°58'1616.3
2015-Jul-02 12:33N 55°21' E 014°35'1616.4
2015-Jul-02 11:34N 55°08' E 014°16'1615.9
2015-Jul-02 10:33N 54°59' E 013°54'1616.2
2015-Jul-02 09:34N 54°53' E 013°27'1616.3
2015-Jul-02 08:33N 54°48' E 013°01'1616.3
2015-Jul-02 07:33N 54°42' E 012°34'1615.7
2015-Jul-02 06:33N 54°30' E 012°16'1414.3
2015-Jul-02 05:33N 54°24' E 011°53'1616.0
2015-Jul-02 04:33N 54°30' E 011°28'1615.7
2015-Jul-02 03:33N 54°35' E 011°02'1616.2
2015-Jul-02 02:33N 54°33' E 010°34'1414.3
2015-Jul-02 01:33N 54°26' E 010°13'5 4.8
2015-Jul-02 00:33N 54°22' E 010°08'3 3.4
2015-Jul-01 23:33N 54°22' E 010°02'8 7.6
2015-Jul-01 22:33N 54°22' E 009°49'10 7.9
2015-Jul-01 21:14N 54°14' E 009°37'5 6.9
2015-Jul-01 20:33N 54°11' E 009°31'8 7.5
2015-Jul-01 19:30N 54°07' E 009°20'5 4.9
2015-Jul-01 18:33N 54°02' E 009°18'7 6.8
2015-Jul-01 17:33N 53°56' E 009°13'3 3.4
2015-Jul-01 16:33N 53°54' E 009°09'7 6.9
2015-Jul-01 15:33N 53°51' E 008°58'1111.4
2015-Jul-01 14:33N 53°55' E 008°40'26 8.6
2015-Jul-01 11:33N 53°49' E 007°58'1514.8
2015-Jul-01 10:33N 53°35' E 008°09'0 0.2
2015-Jul-01 09:30N 53°35' E 008°09'0 0.0
2015-Jul-01 08:30N 53°35' E 008°09'0 0.0
2015-Jul-01 07:21N 53°35' E 008°09'0 0.0
2015-Jul-01 06:15N 53°35' E 008°09'0 0.0
2015-Jul-01 05:33N 53°35' E 008°09'0 0.0
2015-Jul-01 04:27N 53°35' E 008°09'0 0.0
2015-Jul-01 03:33N 53°35' E 008°09'0 0.0
2015-Jul-01 02:27N 53°35' E 008°09'0 0.0
2015-Jul-01 01:33N 53°35' E 008°09'0 0.0
2015-Jul-01 00:33N 53°35' E 008°09'0 0.0
2015-Jun-30 22:33N 53°35' E 008°09'0 0.0
2015-Jun-30 21:27N 53°35' E 008°09'0 0.0
2015-Jun-30 18:30N 53°35' E 008°09'0 0.0
2015-Jun-30 17:33N 53°35' E 008°09'0 0.0
2015-Jun-30 16:33N 53°35' E 008°09'0 0.0
2015-Jun-30 14:06N 53°35' E 008°09'0 0.0
2015-Jun-30 13:30N 53°35' E 008°09'0 0.0
2015-Jun-30 12:18N 53°35' E 008°09'0 0.0
2015-Jun-30 11:30N 53°35' E 008°09'0 0.2
2015-Jun-30 10:33N 53°35' E 008°10'1110.8
2015-Jun-30 09:34N 53°45' E 008°03'5 5.1
2015-Jun-30 08:34N 53°50' E 008°03'1414.1
2015-Jun-30 07:33N 53°41' E 008°21'8 7.3
2015-Jun-30 06:31N 53°36' E 008°31'0 0.0
2015-Jun-30 05:31N 53°36' E 008°31'0 0.0
2015-Jun-30 04:31N 53°36' E 008°31'0 0.0
2015-Jun-30 03:31N 53°36' E 008°31'0 0.0
2015-Jun-30 02:31N 53°36' E 008°31'0 0.0
2015-Jun-30 01:31N 53°36' E 008°31'0 0.0
2015-Jun-30 00:31N 53°36' E 008°31'0 0.0
2015-Jun-29 23:31N 53°36' E 008°31'0 0.0
2015-Jun-29 22:31N 53°36' E 008°31'0 0.0
2015-Jun-29 21:31N 53°36' E 008°31'8 8.8
2015-Jun-29 20:33N 53°42' E 008°20'1716.5
2015-Jun-29 19:33N 53°51' E 007°57'4 4.0
2015-Jun-29 18:33N 53°54' E 007°53'1312.5
2015-Jun-29 17:33N 54°00' E 008°12'1515.6
2015-Jun-29 16:33N 53°57' E 008°37'1616.2
2015-Jun-29 15:33N 53°52' E 009°03'1413.8
2015-Jun-29 14:34N 53°46' E 009°24'1414.1
2015-Jun-29 13:33N 53°34' E 009°39'10 9.7
2015-Jun-29 12:33N 53°32' E 009°55'0 0.1
2015-Jun-29 11:32N 53°32' E 009°55'0 0.0
2015-Jun-29 10:32N 53°32' E 009°55'0 0.0
2015-Jun-29 09:32N 53°32' E 009°55'0 0.0
2015-Jun-29 07:13N 53°32' E 009°55'0 0.0
2015-Jun-29 06:31N 53°32' E 009°55'0 0.0
2015-Jun-29 05:31N 53°32' E 009°55'0 0.0
2015-Jun-29 03:30N 53°32' E 009°55'0 0.0
2015-Jun-29 02:33N 53°32' E 009°55'8 8.3
2015-Jun-29 01:33N 53°34' E 009°41'1312.9
2015-Jun-29 00:34N 53°44' E 009°27'1414.0
2015-Jun-28 23:33N 53°53' E 009°09'1414.1
2015-Jun-28 22:34N 53°51' E 008°45'1414.1
2015-Jun-28 21:33N 53°59' E 008°25'1515.0
2015-Jun-28 20:33N 54°01' E 007°60'1716.7
2015-Jun-28 19:33N 54°09' E 007°34'24414.1
2015-Jun-28 02:15N 57°50' E 010°39'1217.1
2015-Jun-28 01:33N 57°44' E 010°58'1717.3
2015-Jun-28 00:34N 57°32' E 011°21'1717.2
2015-Jun-27 23:33N 57°16' E 011°34'1817.7
2015-Jun-27 22:33N 56°59' E 011°45'1817.5
2015-Jun-27 21:33N 56°43' E 011°55'1817.6
2015-Jun-27 20:33N 56°26' E 012°02'1616.1
2015-Jun-27 19:34N 56°13' E 012°20'1716.8
2015-Jun-27 18:33N 56°01' E 012°40'1616.1
2015-Jun-27 17:34N 55°45' E 012°40'3 2.8
2015-Jun-27 16:28N 55°43' E 012°36'0 0.0
2015-Jun-27 15:28N 55°43' E 012°36'0 0.0
2015-Jun-27 14:28N 55°43' E 012°36'0 0.0
2015-Jun-27 13:28N 55°43' E 012°36'0 0.0
2015-Jun-27 12:28N 55°43' E 012°36'0 0.0
2015-Jun-27 11:28N 55°43' E 012°36'0 0.0
2015-Jun-27 10:28N 55°43' E 012°36'0 0.0
2015-Jun-27 09:28N 55°43' E 012°36'0 0.0
2015-Jun-27 08:28N 55°43' E 012°36'0 0.0
2015-Jun-27 07:31N 55°43' E 012°36'0 0.0
2015-Jun-27 06:28N 55°43' E 012°36'0 0.0
2015-Jun-27 05:31N 55°43' E 012°36'0 0.0
2015-Jun-27 04:31N 55°43' E 012°36'0 0.0
2015-Jun-27 03:31N 55°43' E 012°36'0 0.0
2015-Jun-27 02:31N 55°43' E 012°36'0 0.0
2015-Jun-27 01:31N 55°43' E 012°36'0 0.0
2015-Jun-27 00:31N 55°43' E 012°36'0 0.0
2015-Jun-26 23:31N 55°43' E 012°36'0 0.0
2015-Jun-26 22:31N 55°43' E 012°36'0 0.0
2015-Jun-26 21:31N 55°43' E 012°36'0 0.3
2015-Jun-26 20:33N 55°42' E 012°37'9 9.0
2015-Jun-26 19:33N 55°51' E 012°41'1110.5
2015-Jun-26 18:33N 56°02' E 012°41'0 0.0
2015-Jun-26 12:18N 56°02' E 012°42'0 0.0
2015-Jun-26 11:30N 56°02' E 012°42'0 0.0
2015-Jun-26 10:33N 56°02' E 012°42'0 0.0
2015-Jun-26 09:30N 56°02' E 012°42'0 0.0
2015-Jun-26 08:30N 56°02' E 012°42'0 0.0
2015-Jun-26 07:33N 56°02' E 012°42'0 0.2
2015-Jun-26 06:33N 56°02' E 012°42'1110.9
2015-Jun-26 05:33N 56°09' E 012°27'1717.0
2015-Jun-26 04:33N 56°19' E 012°02'1717.4
2015-Jun-26 03:33N 56°36' E 011°55'1817.7
2015-Jun-26 02:33N 56°53' E 011°47'1818.1
2015-Jun-26 01:33N 57°10' E 011°36'1818.0
2015-Jun-26 00:33N 57°27' E 011°24'1818.0
2015-Jun-25 23:33N 57°40' E 011°01'1917.6
2015-Jun-25 22:29N 57°49' E 010°30'19916.0
2015-Jun-25 10:04N 55°05' E 007°06'816.3
2015-Jun-25 09:33N 54°57' E 007°06'1716.2
2015-Jun-25 08:32N 54°41' E 007°14'1616.2
2015-Jun-25 07:33N 54°25' E 007°21'1616.2
2015-Jun-25 06:33N 54°10' E 007°30'1616.0
2015-Jun-25 05:33N 53°56' E 007°43'1414.0
2015-Jun-25 04:33N 53°50' E 008°05'1514.8
2015-Jun-25 03:33N 53°40' E 008°23'6 6.0
2015-Jun-25 02:33N 53°36' E 008°31'0 0.0
2015-Jun-25 01:33N 53°36' E 008°31'0 0.0
2015-Jun-25 00:33N 53°36' E 008°31'0 0.0
2015-Jun-24 23:33N 53°36' E 008°31'0 0.0
2015-Jun-24 22:33N 53°36' E 008°31'0 0.0
2015-Jun-24 21:33N 53°36' E 008°31'0 0.0
2015-Jun-24 20:33N 53°36' E 008°31'0 0.0
2015-Jun-24 19:33N 53°36' E 008°31'0 0.0
2015-Jun-24 18:33N 53°36' E 008°31'0 0.0
2015-Jun-24 17:33N 53°36' E 008°31'0 0.0
2015-Jun-24 16:33N 53°36' E 008°31'0 0.0
2015-Jun-24 15:33N 53°36' E 008°31'0 0.0
2015-Jun-24 14:33N 53°36' E 008°31'0 0.0
2015-Jun-24 13:33N 53°36' E 008°31'0 0.0
2015-Jun-24 12:33N 53°36' E 008°31'0 0.0
2015-Jun-24 11:33N 53°36' E 008°31'0 0.0
2015-Jun-24 10:33N 53°36' E 008°31'0 0.0
2015-Jun-24 09:33N 53°36' E 008°31'0 0.0
2015-Jun-24 08:33N 53°36' E 008°31'0 0.0
2015-Jun-24 07:33N 53°36' E 008°31'0 0.0
2015-Jun-24 06:33N 53°36' E 008°31'0 0.0
2015-Jun-24 05:33N 53°36' E 008°31'0 0.0
2015-Jun-24 04:33N 53°36' E 008°31'0 0.0
2015-Jun-24 03:33N 53°36' E 008°31'0 0.0
2015-Jun-24 02:33N 53°36' E 008°31'  
Track history (hours):
 
Tides and Currents Weather Stations Pressure Air Temp Water Temp Dewpoint Dewpoint Depression Visibility Wind Speed Wind Dir Waves Ship Positions

Nordic Philip

Last reported at 2015-Jul-04 02:17 UTC. Time now 2015-Jul-04 20:47 UTC.
Position N 60°00' E 029°43'.

Length 151 m; draft 7.2 m.

Type: Cargo ship. MMSI: 212018000.

Date/timePositionNaut miles runAvg speedWind from/ knotsBaromVisibWave heightAir tempDewpointWater temp
2015-Jul-04 02:17N 60°00' E 029°43'0 0.0
2015-Jul-04 01:29N 60°00' E 029°43'1 1.1
2015-Jul-04 00:33N 59°59' E 029°43'7614.7
2015-Jul-03 19:24N 60°00' E 027°11'1315.1
2015-Jul-03 18:33N 59°59' E 026°46'1615.7
2015-Jul-03 17:33N 59°56' E 026°15'1615.9
2015-Jul-03 16:33N 59°52' E 025°44'2015.8
2015-Jul-03 15:18N 59°48' E 025°06'1216.4
2015-Jul-03 14:33N 59°45' E 024°42'1716.7
2015-Jul-03 13:33N 59°41' E 024°10'1716.8
2015-Jul-03 12:33N 59°35' E 023°39'1716.8
2015-Jul-03 11:33N 59°30' E 023°08'1716.7
2015-Jul-03 10:33N 59°24' E 022°37'1916.8
2015-Jul-03 09:27N 59°13' E 022°08'1516.7
2015-Jul-03 08:33N 59°04' E 021°45'2016.8
2015-Jul-03 07:21N 58°48' E 021°20'8816.7
2015-Jul-03 02:07N 57°38' E 019°39'1716.5
2015-Jul-03 01:04N 57°25' E 019°20'916.4
2015-Jul-03 00:32N 57°18' E 019°10'1616.3
2015-Jul-02 23:33N 57°05' E 018°52'1716.5
2015-Jul-02 22:33N 56°52' E 018°34'4116.5
2015-Jul-02 20:04N 56°26' E 017°36'816.6
2015-Jul-02 19:33N 56°21' E 017°24'1515.3
2015-Jul-02 18:33N 56°11' E 017°03'1916.3
2015-Jul-02 17:25N 55°60' E 016°36'1416.2
2015-Jul-02 16:33N 55°53' E 016°15'1616.2
2015-Jul-02 15:33N 55°45' E 015°49'1616.3
2015-Jul-02 14:33N 55°38' E 015°24'1616.2
2015-Jul-02 13:34N 55°30' E 014°58'1616.3
2015-Jul-02 12:33N 55°21' E 014°35'1616.4
2015-Jul-02 11:34N 55°08' E 014°16'1615.9
2015-Jul-02 10:33N 54°59' E 013°54'1616.2
2015-Jul-02 09:34N 54°53' E 013°27'1616.3
2015-Jul-02 08:33N 54°48' E 013°01'1616.3
2015-Jul-02 07:33N 54°42' E 012°34'1615.7
2015-Jul-02 06:33N 54°30' E 012°16'1414.3
2015-Jul-02 05:33N 54°24' E 011°53'1616.0
2015-Jul-02 04:33N 54°30' E 011°28'1615.7
2015-Jul-02 03:33N 54°35' E 011°02'1616.2
2015-Jul-02 02:33N 54°33' E 010°34'1414.3
2015-Jul-02 01:33N 54°26' E 010°13'5 4.8
2015-Jul-02 00:33N 54°22' E 010°08'3 3.4
2015-Jul-01 23:33N 54°22' E 010°02'8 7.6
2015-Jul-01 22:33N 54°22' E 009°49'10 7.9
2015-Jul-01 21:14N 54°14' E 009°37'5 6.9
2015-Jul-01 20:33N 54°11' E 009°31'8 7.5
2015-Jul-01 19:30N 54°07' E 009°20'5 4.9
2015-Jul-01 18:33N 54°02' E 009°18'7 6.8
2015-Jul-01 17:33N 53°56' E 009°13'3 3.4
2015-Jul-01 16:33N 53°54' E 009°09'7 6.9
2015-Jul-01 15:33N 53°51' E 008°58'1111.4
2015-Jul-01 14:33N 53°55' E 008°40'26 8.6
2015-Jul-01 11:33N 53°49' E 007°58'1514.8
2015-Jul-01 10:33N 53°35' E 008°09'0 0.2
2015-Jul-01 09:30N 53°35' E 008°09'0 0.0
2015-Jul-01 08:30N 53°35' E 008°09'0 0.0
2015-Jul-01 07:21N 53°35' E 008°09'0 0.0
2015-Jul-01 06:15N 53°35' E 008°09'0 0.0
2015-Jul-01 05:33N 53°35' E 008°09'0 0.0
2015-Jul-01 04:27N 53°35' E 008°09'0 0.0
2015-Jul-01 03:33N 53°35' E 008°09'0 0.0
2015-Jul-01 02:27N 53°35' E 008°09'0 0.0
2015-Jul-01 01:33N 53°35' E 008°09'0 0.0
2015-Jul-01 00:33N 53°35' E 008°09'0 0.0
2015-Jun-30 22:33N 53°35' E 008°09'0 0.0
2015-Jun-30 21:27N 53°35' E 008°09'0 0.0
2015-Jun-30 18:30N 53°35' E 008°09'0 0.0
2015-Jun-30 17:33N 53°35' E 008°09'0 0.0
2015-Jun-30 16:33N 53°35' E 008°09'0 0.0
2015-Jun-30 14:06N 53°35' E 008°09'0 0.0
2015-Jun-30 13:30N 53°35' E 008°09'0 0.0
2015-Jun-30 12:18N 53°35' E 008°09'0 0.0
2015-Jun-30 11:30N 53°35' E 008°09'0 0.2
2015-Jun-30 10:33N 53°35' E 008°10'1110.8
2015-Jun-30 09:34N 53°45' E 008°03'5 5.1
2015-Jun-30 08:34N 53°50' E 008°03'1414.1
2015-Jun-30 07:33N 53°41' E 008°21'8 7.3
2015-Jun-30 06:31N 53°36' E 008°31'0 0.0
2015-Jun-30 05:31N 53°36' E 008°31'0 0.0
2015-Jun-30 04:31N 53°36' E 008°31'0 0.0
2015-Jun-30 03:31N 53°36' E 008°31'0 0.0
2015-Jun-30 02:31N 53°36' E 008°31'0 0.0
2015-Jun-30 01:31N 53°36' E 008°31'0 0.0
2015-Jun-30 00:31N 53°36' E 008°31'0 0.0
2015-Jun-29 23:31N 53°36' E 008°31'0 0.0
2015-Jun-29 22:31N 53°36' E 008°31'0 0.0
2015-Jun-29 21:31N 53°36' E 008°31'8 8.8
2015-Jun-29 20:33N 53°42' E 008°20'1716.5
2015-Jun-29 19:33N 53°51' E 007°57'4 4.0
2015-Jun-29 18:33N 53°54' E 007°53'1312.5
2015-Jun-29 17:33N 54°00' E 008°12'1515.6
2015-Jun-29 16:33N 53°57' E 008°37'1616.2
2015-Jun-29 15:33N 53°52' E 009°03'1413.8
2015-Jun-29 14:34N 53°46' E 009°24'1414.1
2015-Jun-29 13:33N 53°34' E 009°39'10 9.7
2015-Jun-29 12:33N 53°32' E 009°55'0 0.1
2015-Jun-29 11:32N 53°32' E 009°55'0 0.0
2015-Jun-29 10:32N 53°32' E 009°55'0 0.0
2015-Jun-29 09:32N 53°32' E 009°55'0 0.0
2015-Jun-29 07:13N 53°32' E 009°55'0 0.0
2015-Jun-29 06:31N 53°32' E 009°55'0 0.0
2015-Jun-29 05:31N 53°32' E 009°55'0 0.0
2015-Jun-29 03:30N 53°32' E 009°55'0 0.0
2015-Jun-29 02:33N 53°32' E 009°55'8 8.3
2015-Jun-29 01:33N 53°34' E 009°41'1312.9
2015-Jun-29 00:34N 53°44' E 009°27'1414.0
2015-Jun-28 23:33N 53°53' E 009°09'1414.1
2015-Jun-28 22:34N 53°51' E 008°45'1414.1
2015-Jun-28 21:33N 53°59' E 008°25'1515.0
2015-Jun-28 20:33N 54°01' E 007°60'1716.7
2015-Jun-28 19:33N 54°09' E 007°34'24414.1
2015-Jun-28 02:15N 57°50' E 010°39'1217.1
2015-Jun-28 01:33N 57°44' E 010°58'1717.3
2015-Jun-28 00:34N 57°32' E 011°21'1717.2
2015-Jun-27 23:33N 57°16' E 011°34'1817.7
2015-Jun-27 22:33N 56°59' E 011°45'1817.5
2015-Jun-27 21:33N 56°43' E 011°55'1817.6
2015-Jun-27 20:33N 56°26' E 012°02'1616.1
2015-Jun-27 19:34N 56°13' E 012°20'1716.8
2015-Jun-27 18:33N 56°01' E 012°40'1616.1
2015-Jun-27 17:34N 55°45' E 012°40'3 2.8
2015-Jun-27 16:28N 55°43' E 012°36'0 0.0
2015-Jun-27 15:28N 55°43' E 012°36'0 0.0
2015-Jun-27 14:28N 55°43' E 012°36'0 0.0
2015-Jun-27 13:28N 55°43' E 012°36'0 0.0
2015-Jun-27 12:28N 55°43' E 012°36'0 0.0
2015-Jun-27 11:28N 55°43' E 012°36'0 0.0
2015-Jun-27 10:28N 55°43' E 012°36'0 0.0
2015-Jun-27 09:28N 55°43' E 012°36'0 0.0
2015-Jun-27 08:28N 55°43' E 012°36'0 0.0
2015-Jun-27 07:31N 55°43' E 012°36'0 0.0
2015-Jun-27 06:28N 55°43' E 012°36'0 0.0
2015-Jun-27 05:31N 55°43' E 012°36'0 0.0
2015-Jun-27 04:31N 55°43' E 012°36'0 0.0
2015-Jun-27 03:31N 55°43' E 012°36'0 0.0
2015-Jun-27 02:31N 55°43' E 012°36'0 0.0
2015-Jun-27 01:31N 55°43' E 012°36'0 0.0
2015-Jun-27 00:31N 55°43' E 012°36'0 0.0
2015-Jun-26 23:31N 55°43' E 012°36'0 0.0
2015-Jun-26 22:31N 55°43' E 012°36'0 0.0
2015-Jun-26 21:31N 55°43' E 012°36'0 0.3
2015-Jun-26 20:33N 55°42' E 012°37'9 9.0
2015-Jun-26 19:33N 55°51' E 012°41'1110.5
2015-Jun-26 18:33N 56°02' E 012°41'0 0.0
2015-Jun-26 12:18N 56°02' E 012°42'0 0.0
2015-Jun-26 11:30N 56°02' E 012°42'0 0.0
2015-Jun-26 10:33N 56°02' E 012°42'0 0.0
2015-Jun-26 09:30N 56°02' E 012°42'0 0.0
2015-Jun-26 08:30N 56°02' E 012°42'0 0.0
2015-Jun-26 07:33N 56°02' E 012°42'0 0.2
2015-Jun-26 06:33N 56°02' E 012°42'1110.9
2015-Jun-26 05:33N 56°09' E 012°27'1717.0
2015-Jun-26 04:33N 56°19' E 012°02'1717.4
2015-Jun-26 03:33N 56°36' E 011°55'1817.7
2015-Jun-26 02:33N 56°53' E 011°47'1818.1
2015-Jun-26 01:33N 57°10' E 011°36'1818.0
2015-Jun-26 00:33N 57°27' E 011°24'1818.0
2015-Jun-25 23:33N 57°40' E 011°01'1917.6
2015-Jun-25 22:29N 57°49' E 010°30'19916.0
2015-Jun-25 10:04N 55°05' E 007°06'816.3
2015-Jun-25 09:33N 54°57' E 007°06'1716.2
2015-Jun-25 08:32N 54°41' E 007°14'1616.2
2015-Jun-25 07:33N 54°25' E 007°21'1616.2
2015-Jun-25 06:33N 54°10' E 007°30'1616.0
2015-Jun-25 05:33N 53°56' E 007°43'1414.0
2015-Jun-25 04:33N 53°50' E 008°05'1514.8
2015-Jun-25 03:33N 53°40' E 008°23'6 6.0
2015-Jun-25 02:33N 53°36' E 008°31'0 0.0
2015-Jun-25 01:33N 53°36' E 008°31'0 0.0
2015-Jun-25 00:33N 53°36' E 008°31'0 0.0
2015-Jun-24 23:33N 53°36' E 008°31'0 0.0
2015-Jun-24 22:33N 53°36' E 008°31'0 0.0
2015-Jun-24 21:33N 53°36' E 008°31'0 0.0
2015-Jun-24 20:33N 53°36' E 008°31'0 0.0
2015-Jun-24 19:33N 53°36' E 008°31'0 0.0
2015-Jun-24 18:33N 53°36' E 008°31'0 0.0
2015-Jun-24 17:33N 53°36' E 008°31'0 0.0
2015-Jun-24 16:33N 53°36' E 008°31'0 0.0
2015-Jun-24 15:33N 53°36' E 008°31'0 0.0
2015-Jun-24 14:33N 53°36' E 008°31'0 0.0
2015-Jun-24 13:33N 53°36' E 008°31'0 0.0
2015-Jun-24 12:33N 53°36' E 008°31'0 0.0
2015-Jun-24 11:33N 53°36' E 008°31'0 0.0
2015-Jun-24 10:33N 53°36' E 008°31'0 0.0
2015-Jun-24 09:33N 53°36' E 008°31'0 0.0
2015-Jun-24 08:33N 53°36' E 008°31'0 0.0
2015-Jun-24 07:33N 53°36' E 008°31'0 0.0
2015-Jun-24 06:33N 53°36' E 008°31'0 0.0
2015-Jun-24 05:33N 53°36' E 008°31'0 0.0
2015-Jun-24 04:33N 53°36' E 008°31'0 0.0
2015-Jun-24 03:33N 53°36' E 008°31'0 0.0
2015-Jun-24 02:33N 53°36' E 008°31'  

Dump ship's entire track history